sensor_id;sensor_type;location;lat;lon;timestamp;pressure;altitude;pressure_sealevel;temperature;humidity
83424;BME280;73355;49.044;8.686;2024-02-26T00:00:05;97709.22;;;9.83;54.65
83424;BME280;73355;49.044;8.686;2024-02-26T00:02:35;97710.25;;;9.86;54.74
83424;BME280;73355;49.044;8.686;2024-02-26T00:05:05;97714.50;;;9.87;54.60
83424;BME280;73355;49.044;8.686;2024-02-26T00:07:30;97708.94;;;9.90;54.20
83424;BME280;73355;49.044;8.686;2024-02-26T00:09:55;97721.44;;;9.88;54.05
83424;BME280;73355;49.044;8.686;2024-02-26T00:12:20;97728.53;;;9.85;53.75
83424;BME280;73355;49.044;8.686;2024-02-26T00:14:46;97719.63;;;9.85;53.57
83424;BME280;73355;49.044;8.686;2024-02-26T00:17:13;97736.38;;;9.83;53.76
83424;BME280;73355;49.044;8.686;2024-02-26T00:19:38;97741.06;;;9.83;53.54
83424;BME280;73355;49.044;8.686;2024-02-26T00:22:04;97733.06;;;9.79;53.24
83424;BME280;73355;49.044;8.686;2024-02-26T00:24:29;97742.41;;;9.78;53.12
83424;BME280;73355;49.044;8.686;2024-02-26T00:26:54;97738.91;;;9.78;52.96
83424;BME280;73355;49.044;8.686;2024-02-26T00:29:20;97736.66;;;9.76;52.75
83424;BME280;73355;49.044;8.686;2024-02-26T00:31:45;97744.78;;;9.76;52.81
83424;BME280;73355;49.044;8.686;2024-02-26T00:34:11;97741.94;;;9.80;52.82
83424;BME280;73355;49.044;8.686;2024-02-26T00:36:36;97747.69;;;9.82;53.22
83424;BME280;73355;49.044;8.686;2024-02-26T00:39:01;97748.78;;;9.84;52.86
83424;BME280;73355;49.044;8.686;2024-02-26T00:41:28;97760.69;;;9.87;52.90
83424;BME280;73355;49.044;8.686;2024-02-26T00:43:54;97763.72;;;9.89;53.32
83424;BME280;73355;49.044;8.686;2024-02-26T00:46:19;97763.72;;;9.89;53.24
83424;BME280;73355;49.044;8.686;2024-02-26T00:48:44;97764.50;;;9.89;53.53
83424;BME280;73355;49.044;8.686;2024-02-26T00:51:09;97773.25;;;9.93;53.88
83424;BME280;73355;49.044;8.686;2024-02-26T00:53:35;97761.19;;;9.94;53.86
83424;BME280;73355;49.044;8.686;2024-02-26T00:56:00;97762.53;;;9.90;54.13
83424;BME280;73355;49.044;8.686;2024-02-26T00:58:26;97758.88;;;9.84;54.74
83424;BME280;73355;49.044;8.686;2024-02-26T01:00:52;97753.25;;;9.78;55.39
83424;BME280;73355;49.044;8.686;2024-02-26T01:03:17;97763.97;;;9.73;55.87
83424;BME280;73355;49.044;8.686;2024-02-26T01:05:43;97771.75;;;9.62;55.97
83424;BME280;73355;49.044;8.686;2024-02-26T01:08:08;97768.09;;;9.56;55.88
83424;BME280;73355;49.044;8.686;2024-02-26T01:10:34;97752.53;;;9.56;55.85
83424;BME280;73355;49.044;8.686;2024-02-26T01:12:59;97751.78;;;9.56;56.75
83424;BME280;73355;49.044;8.686;2024-02-26T01:15:25;97755.69;;;9.54;57.30
83424;BME280;73355;49.044;8.686;2024-02-26T01:17:50;97749.94;;;9.52;57.60
83424;BME280;73355;49.044;8.686;2024-02-26T01:20:16;97742.69;;;9.49;58.14
83424;BME280;73355;49.044;8.686;2024-02-26T01:22:42;97746.28;;;9.46;57.98
83424;BME280;73355;49.044;8.686;2024-02-26T01:25:08;97740.84;;;9.46;57.75
83424;BME280;73355;49.044;8.686;2024-02-26T01:27:34;97744.31;;;9.47;57.92
83424;BME280;73355;49.044;8.686;2024-02-26T01:30:00;97747.81;;;9.47;58.24
83424;BME280;73355;49.044;8.686;2024-02-26T01:32:25;97746.94;;;9.50;58.13
83424;BME280;73355;49.044;8.686;2024-02-26T01:34:50;97745.59;;;9.55;58.07
83424;BME280;73355;49.044;8.686;2024-02-26T01:37:15;97744.69;;;9.58;58.15
83424;BME280;73355;49.044;8.686;2024-02-26T01:39:41;97738.50;;;9.58;58.96
83424;BME280;73355;49.044;8.686;2024-02-26T01:42:07;97750.00;;;9.62;59.42
83424;BME280;73355;49.044;8.686;2024-02-26T01:44:32;97768.53;;;9.54;60.10
83424;BME280;73355;49.044;8.686;2024-02-26T01:46:58;97782.06;;;9.45;60.39
83424;BME280;73355;49.044;8.686;2024-02-26T01:49:23;97771.88;;;9.36;60.90
83424;BME280;73355;49.044;8.686;2024-02-26T01:51:49;97780.00;;;9.36;61.21
83424;BME280;73355;49.044;8.686;2024-02-26T01:54:14;97777.91;;;9.40;61.78
83424;BME280;73355;49.044;8.686;2024-02-26T01:56:41;97794.53;;;9.42;62.30
83424;BME280;73355;49.044;8.686;2024-02-26T01:59:06;97784.13;;;9.41;62.52
83424;BME280;73355;49.044;8.686;2024-02-26T02:01:33;97790.34;;;9.29;62.93
83424;BME280;73355;49.044;8.686;2024-02-26T02:04:00;97786.69;;;9.23;62.32
83424;BME280;73355;49.044;8.686;2024-02-26T02:06:26;97787.00;;;9.25;61.80
83424;BME280;73355;49.044;8.686;2024-02-26T02:08:54;97796.13;;;9.31;61.95
83424;BME280;73355;49.044;8.686;2024-02-26T02:11:19;97784.69;;;9.36;62.71
83424;BME280;73355;49.044;8.686;2024-02-26T02:13:45;97783.16;;;9.35;62.39
83424;BME280;73355;49.044;8.686;2024-02-26T02:16:10;97784.94;;;9.29;62.98
83424;BME280;73355;49.044;8.686;2024-02-26T02:18:36;97779.31;;;9.23;63.97
83424;BME280;73355;49.044;8.686;2024-02-26T02:21:01;97776.59;;;9.23;64.66
83424;BME280;73355;49.044;8.686;2024-02-26T02:23:26;97783.69;;;9.21;65.01
83424;BME280;73355;49.044;8.686;2024-02-26T02:25:52;97779.44;;;9.20;65.38
83424;BME280;73355;49.044;8.686;2024-02-26T02:28:19;97775.84;;;9.23;65.76
83424;BME280;73355;49.044;8.686;2024-02-26T02:30:44;97778.50;;;9.13;65.84
83424;BME280;73355;49.044;8.686;2024-02-26T02:33:10;97789.59;;;9.06;65.38
83424;BME280;73355;49.044;8.686;2024-02-26T02:35:36;97793.25;;;9.12;64.14
83424;BME280;73355;49.044;8.686;2024-02-26T02:38:03;97787.06;;;9.12;63.92
83424;BME280;73355;49.044;8.686;2024-02-26T02:40:28;97790.88;;;9.15;63.76
83424;BME280;73355;49.044;8.686;2024-02-26T02:42:53;97793.91;;;9.17;63.69
83424;BME280;73355;49.044;8.686;2024-02-26T02:45:18;97783.91;;;9.13;63.62
83424;BME280;73355;49.044;8.686;2024-02-26T02:47:44;97781.06;;;9.17;63.60
83424;BME280;73355;49.044;8.686;2024-02-26T02:50:09;97788.34;;;9.20;63.58
83424;BME280;73355;49.044;8.686;2024-02-26T02:52:35;97789.41;;;9.23;63.79
83424;BME280;73355;49.044;8.686;2024-02-26T02:55:00;97790.50;;;9.25;63.52
83424;BME280;73355;49.044;8.686;2024-02-26T02:57:26;97777.69;;;9.26;63.46
83424;BME280;73355;49.044;8.686;2024-02-26T02:59:51;97776.59;;;9.23;63.33
83424;BME280;73355;49.044;8.686;2024-02-26T03:02:16;97781.16;;;9.26;63.42
83424;BME280;73355;49.044;8.686;2024-02-26T03:04:42;97778.63;;;9.32;63.35
83424;BME280;73355;49.044;8.686;2024-02-26T03:07:07;97777.16;;;9.40;63.61
83424;BME280;73355;49.044;8.686;2024-02-26T03:09:32;97779.75;;;9.43;64.39
83424;BME280;73355;49.044;8.686;2024-02-26T03:11:57;97777.81;;;9.44;64.97
83424;BME280;73355;49.044;8.686;2024-02-26T03:14:23;97789.44;;;9.44;65.07
83424;BME280;73355;49.044;8.686;2024-02-26T03:16:48;97778.25;;;9.42;65.20
83424;BME280;73355;49.044;8.686;2024-02-26T03:19:15;97780.19;;;9.42;65.19
83424;BME280;73355;49.044;8.686;2024-02-26T03:21:41;97772.94;;;9.39;65.26
83424;BME280;73355;49.044;8.686;2024-02-26T03:24:07;97769.16;;;9.36;65.73
83424;BME280;73355;49.044;8.686;2024-02-26T03:26:35;97767.19;;;9.37;66.18
83424;BME280;73355;49.044;8.686;2024-02-26T03:29:00;97760.69;;;9.34;66.17
83424;BME280;73355;49.044;8.686;2024-02-26T03:31:27;97771.09;;;9.36;66.00
83424;BME280;73355;49.044;8.686;2024-02-26T03:33:52;97761.16;;;9.33;66.18
83424;BME280;73355;49.044;8.686;2024-02-26T03:36:18;97765.56;;;9.39;66.08
83424;BME280;73355;49.044;8.686;2024-02-26T03:38:43;97758.16;;;9.40;65.86
83424;BME280;73355;49.044;8.686;2024-02-26T03:41:08;97760.88;;;9.40;66.16
83424;BME280;73355;49.044;8.686;2024-02-26T03:43:34;97755.72;;;9.33;66.31
83424;BME280;73355;49.044;8.686;2024-02-26T03:45:59;97755.25;;;9.34;66.42
83424;BME280;73355;49.044;8.686;2024-02-26T03:48:25;97759.06;;;9.37;66.33
83424;BME280;73355;49.044;8.686;2024-02-26T03:50:50;97750.47;;;9.38;66.20
83424;BME280;73355;49.044;8.686;2024-02-26T03:53:16;97741.88;;;9.40;66.50
83424;BME280;73355;49.044;8.686;2024-02-26T03:55:41;97742.00;;;9.36;66.80
83424;BME280;73355;49.044;8.686;2024-02-26T03:58:07;97749.09;;;9.34;67.12
83424;BME280;73355;49.044;8.686;2024-02-26T04:00:33;97730.19;;;9.30;67.16
83424;BME280;73355;49.044;8.686;2024-02-26T04:02:58;97731.84;;;9.28;67.23
83424;BME280;73355;49.044;8.686;2024-02-26T04:05:23;97723.38;;;9.26;67.35
83424;BME280;73355;49.044;8.686;2024-02-26T04:07:48;97710.81;;;9.19;67.48
83424;BME280;73355;49.044;8.686;2024-02-26T04:10:14;97720.09;;;9.09;68.07
83424;BME280;73355;49.044;8.686;2024-02-26T04:12:40;97710.59;;;9.04;68.63
83424;BME280;73355;49.044;8.686;2024-02-26T04:15:07;97710.69;;;9.01;68.70
83424;BME280;73355;49.044;8.686;2024-02-26T04:17:33;97701.94;;;8.97;69.03
83424;BME280;73355;49.044;8.686;2024-02-26T04:19:58;97705.53;;;8.94;68.94
83424;BME280;73355;49.044;8.686;2024-02-26T04:22:23;97706.84;;;8.89;68.96
83424;BME280;73355;49.044;8.686;2024-02-26T04:24:49;97704.88;;;8.90;68.89
83424;BME280;73355;49.044;8.686;2024-02-26T04:27:14;97706.97;;;8.86;68.88
83424;BME280;73355;49.044;8.686;2024-02-26T04:29:39;97710.44;;;8.86;69.15
83424;BME280;73355;49.044;8.686;2024-02-26T04:32:05;97718.00;;;8.91;68.93
83424;BME280;73355;49.044;8.686;2024-02-26T04:34:30;97708.53;;;8.96;69.00
83424;BME280;73355;49.044;8.686;2024-02-26T04:36:55;97716.44;;;9.03;69.39
83424;BME280;73355;49.044;8.686;2024-02-26T04:39:21;97706.97;;;9.07;68.75
83424;BME280;73355;49.044;8.686;2024-02-26T04:41:46;97713.91;;;9.08;68.58
83424;BME280;73355;49.044;8.686;2024-02-26T04:44:11;97708.94;;;9.07;68.62
83424;BME280;73355;49.044;8.686;2024-02-26T04:46:37;97720.25;;;9.05;68.59
83424;BME280;73355;49.044;8.686;2024-02-26T04:49:02;97726.88;;;9.04;68.92
83424;BME280;73355;49.044;8.686;2024-02-26T04:51:27;97731.22;;;9.02;69.15
83424;BME280;73355;49.044;8.686;2024-02-26T04:53:52;97732.41;;;9.01;69.34
83424;BME280;73355;49.044;8.686;2024-02-26T04:56:20;97732.41;;;9.01;69.34
83424;BME280;73355;49.044;8.686;2024-02-26T04:58:46;97725.03;;;9.01;69.57
83424;BME280;73355;49.044;8.686;2024-02-26T05:01:11;97732.41;;;9.01;69.50
83424;BME280;73355;49.044;8.686;2024-02-26T05:03:36;97734.69;;;9.02;69.84
83424;BME280;73355;49.044;8.686;2024-02-26T05:06:02;97743.59;;;9.03;70.04
83424;BME280;73355;49.044;8.686;2024-02-26T05:08:27;97740.44;;;9.04;70.03
83424;BME280;73355;49.044;8.686;2024-02-26T05:10:53;97738.34;;;9.08;69.86
83424;BME280;73355;49.044;8.686;2024-02-26T05:13:18;97737.78;;;9.13;70.00
83424;BME280;73355;49.044;8.686;2024-02-26T05:15:43;97757.53;;;9.14;70.02
83424;BME280;73355;49.044;8.686;2024-02-26T05:18:10;97756.44;;;9.11;70.12
83424;BME280;73355;49.044;8.686;2024-02-26T05:20:35;97760.06;;;9.08;70.20
83424;BME280;73355;49.044;8.686;2024-02-26T05:23:01;97768.34;;;9.05;70.26
83424;BME280;73355;49.044;8.686;2024-02-26T05:25:26;97774.28;;;9.00;70.26
83424;BME280;73355;49.044;8.686;2024-02-26T05:27:52;97767.81;;;8.97;70.44
83424;BME280;73355;49.044;8.686;2024-02-26T05:30:17;97759.34;;;8.95;70.37
83424;BME280;73355;49.044;8.686;2024-02-26T05:32:42;97760.84;;;8.96;70.59
83424;BME280;73355;49.044;8.686;2024-02-26T05:35:08;97771.72;;;8.96;70.91
83424;BME280;73355;49.044;8.686;2024-02-26T05:37:33;97771.16;;;9.01;70.49
83424;BME280;73355;49.044;8.686;2024-02-26T05:39:59;97782.75;;;9.02;70.86
83424;BME280;73355;49.044;8.686;2024-02-26T05:42:24;97783.84;;;9.04;70.84
83424;BME280;73355;49.044;8.686;2024-02-26T05:44:49;97790.91;;;9.02;70.78
83424;BME280;73355;49.044;8.686;2024-02-26T05:47:15;97787.56;;;8.98;70.78
83424;BME280;73355;49.044;8.686;2024-02-26T05:49:40;97790.38;;;8.94;70.75
83424;BME280;73355;49.044;8.686;2024-02-26T05:52:06;97792.78;;;8.92;70.47
83424;BME280;73355;49.044;8.686;2024-02-26T05:54:31;97789.75;;;8.90;70.77
83424;BME280;73355;49.044;8.686;2024-02-26T05:56:57;97800.41;;;8.85;70.66
83424;BME280;73355;49.044;8.686;2024-02-26T05:59:22;97799.00;;;8.80;70.29
83424;BME280;73355;49.044;8.686;2024-02-26T06:01:48;97806.06;;;8.78;70.03
83424;BME280;73355;49.044;8.686;2024-02-26T06:04:13;97799.22;;;8.73;69.87
83424;BME280;73355;49.044;8.686;2024-02-26T06:06:38;97805.22;;;8.68;70.21
83424;BME280;73355;49.044;8.686;2024-02-26T06:09:04;97807.59;;;8.66;70.58
83424;BME280;73355;49.044;8.686;2024-02-26T06:11:30;97802.63;;;8.64;70.95
83424;BME280;73355;49.044;8.686;2024-02-26T06:13:55;97791.78;;;8.64;71.01
83424;BME280;73355;49.044;8.686;2024-02-26T06:16:21;97802.28;;;8.62;71.12
83424;BME280;73355;49.044;8.686;2024-02-26T06:18:46;97794.59;;;8.61;71.35
83424;BME280;73355;49.044;8.686;2024-02-26T06:21:11;97796.53;;;8.60;71.40
83424;BME280;73355;49.044;8.686;2024-02-26T06:23:38;97804.38;;;8.58;71.32
83424;BME280;73355;49.044;8.686;2024-02-26T06:26:03;97818.34;;;8.57;71.25
83424;BME280;73355;49.044;8.686;2024-02-26T06:28:29;97819.53;;;8.56;71.30
83424;BME280;73355;49.044;8.686;2024-02-26T06:30:55;97821.06;;;8.57;71.18
83424;BME280;73355;49.044;8.686;2024-02-26T06:33:21;97831.38;;;8.62;71.13
83424;BME280;73355;49.044;8.686;2024-02-26T06:35:46;97831.69;;;8.64;70.94
83424;BME280;73355;49.044;8.686;2024-02-26T06:38:11;97830.81;;;8.67;70.94
83424;BME280;73355;49.044;8.686;2024-02-26T06:40:38;97833.09;;;8.68;70.77
83424;BME280;73355;49.044;8.686;2024-02-26T06:43:04;97834.19;;;8.71;70.85
83424;BME280;73355;49.044;8.686;2024-02-26T06:45:29;97841.00;;;8.76;70.72
83424;BME280;73355;49.044;8.686;2024-02-26T06:47:54;97854.03;;;8.81;70.60
83424;BME280;73355;49.044;8.686;2024-02-26T06:50:21;97845.44;;;8.82;70.57
83424;BME280;73355;49.044;8.686;2024-02-26T06:52:47;97849.56;;;8.87;70.15
83424;BME280;73355;49.044;8.686;2024-02-26T06:55:12;97844.44;;;8.89;69.91
83424;BME280;73355;49.044;8.686;2024-02-26T06:57:38;97855.97;;;8.93;70.08
83424;BME280;73355;49.044;8.686;2024-02-26T07:00:04;97850.41;;;8.96;70.01
83424;BME280;73355;49.044;8.686;2024-02-26T07:02:29;97853.00;;;9.00;70.59
83424;BME280;73355;49.044;8.686;2024-02-26T07:04:54;97859.50;;;9.02;70.62
83424;BME280;73355;49.044;8.686;2024-02-26T07:07:21;97857.97;;;9.01;70.75
83424;BME280;73355;49.044;8.686;2024-02-26T07:09:47;97858.31;;;9.03;71.12
83424;BME280;73355;49.044;8.686;2024-02-26T07:12:13;97852.88;;;9.03;71.21
83424;BME280;73355;49.044;8.686;2024-02-26T07:14:39;97857.75;;;9.08;71.11
83424;BME280;73355;49.044;8.686;2024-02-26T07:17:04;97864.28;;;9.11;71.22
83424;BME280;73355;49.044;8.686;2024-02-26T07:19:29;97863.63;;;9.07;71.32
83424;BME280;73355;49.044;8.686;2024-02-26T07:21:54;97867.22;;;9.04;71.04
83424;BME280;73355;49.044;8.686;2024-02-26T07:24:20;97859.63;;;8.99;71.26
83424;BME280;73355;49.044;8.686;2024-02-26T07:26:46;97863.97;;;8.96;71.62
83424;BME280;73355;49.044;8.686;2024-02-26T07:29:11;97867.13;;;8.95;71.89
83424;BME280;73355;49.044;8.686;2024-02-26T07:31:37;97867.44;;;8.97;72.10
83424;BME280;73355;49.044;8.686;2024-02-26T07:34:02;97870.78;;;9.01;71.95
83424;BME280;73355;49.044;8.686;2024-02-26T07:36:27;97872.31;;;9.02;72.04
83424;BME280;73355;49.044;8.686;2024-02-26T07:38:53;97877.31;;;9.03;72.04
83424;BME280;73355;49.044;8.686;2024-02-26T07:41:19;97871.13;;;9.03;72.17
83424;BME280;73355;49.044;8.686;2024-02-26T07:43:44;97868.84;;;9.01;72.36
83424;BME280;73355;49.044;8.686;2024-02-26T07:46:11;97874.59;;;9.03;72.30
83424;BME280;73355;49.044;8.686;2024-02-26T07:48:37;97875.34;;;9.04;72.51
83424;BME280;73355;49.044;8.686;2024-02-26T07:51:02;97869.81;;;9.07;72.35
83424;BME280;73355;49.044;8.686;2024-02-26T07:53:28;97870.91;;;9.10;72.58
83424;BME280;73355;49.044;8.686;2024-02-26T07:55:53;97876.63;;;9.12;72.48
83424;BME280;73355;49.044;8.686;2024-02-26T07:58:18;97881.97;;;9.16;72.62
83424;BME280;73355;49.044;8.686;2024-02-26T08:00:44;97883.03;;;9.18;72.35
83424;BME280;73355;49.044;8.686;2024-02-26T08:03:11;97868.25;;;9.19;72.61
83424;BME280;73355;49.044;8.686;2024-02-26T08:05:38;97872.06;;;9.22;72.65
83424;BME280;73355;49.044;8.686;2024-02-26T08:08:06;97870.41;;;9.24;72.47
83424;BME280;73355;49.044;8.686;2024-02-26T08:10:31;97868.78;;;9.27;72.44
83424;BME280;73355;49.044;8.686;2024-02-26T08:12:57;97863.66;;;9.29;72.82
83424;BME280;73355;49.044;8.686;2024-02-26T08:15:30;97865.50;;;9.32;72.65
83424;BME280;73355;49.044;8.686;2024-02-26T08:17:55;97864.75;;;9.31;72.45
83424;BME280;73355;49.044;8.686;2024-02-26T08:20:20;97868.97;;;9.32;72.29
83424;BME280;73355;49.044;8.686;2024-02-26T08:22:46;97868.22;;;9.32;72.53
83424;BME280;73355;49.044;8.686;2024-02-26T08:25:11;97871.28;;;9.34;72.74
83424;BME280;73355;49.044;8.686;2024-02-26T08:27:36;97875.38;;;9.38;72.42
83424;BME280;73355;49.044;8.686;2024-02-26T08:30:02;97879.16;;;9.41;72.48
83424;BME280;73355;49.044;8.686;2024-02-26T08:32:27;97884.47;;;9.44;72.49
83424;BME280;73355;49.044;8.686;2024-02-26T08:34:52;97882.72;;;9.50;72.74
83424;BME280;73355;49.044;8.686;2024-02-26T08:37:18;97884.88;;;9.56;72.67
83424;BME280;73355;49.044;8.686;2024-02-26T08:39:43;97887.78;;;9.61;72.73
83424;BME280;73355;49.044;8.686;2024-02-26T08:42:08;97883.72;;;9.66;72.45
83424;BME280;73355;49.044;8.686;2024-02-26T08:44:34;97890.56;;;9.70;72.36
83424;BME280;73355;49.044;8.686;2024-02-26T08:46:59;97887.72;;;9.74;72.62
83424;BME280;73355;49.044;8.686;2024-02-26T08:49:24;97889.53;;;9.77;72.55
83424;BME280;73355;49.044;8.686;2024-02-26T08:51:49;97891.69;;;9.82;72.50
83424;BME280;73355;49.044;8.686;2024-02-26T08:54:15;97892.66;;;9.88;72.57
83424;BME280;73355;49.044;8.686;2024-02-26T08:56:40;97898.28;;;9.93;72.37
83424;BME280;73355;49.044;8.686;2024-02-26T08:59:05;97901.94;;;10.00;72.31
83424;BME280;73355;49.044;8.686;2024-02-26T09:01:31;97898.50;;;10.08;72.10
83424;BME280;73355;49.044;8.686;2024-02-26T09:03:57;97895.53;;;10.15;72.02
83424;BME280;73355;49.044;8.686;2024-02-26T09:06:23;97885.63;;;10.21;72.06
83424;BME280;73355;49.044;8.686;2024-02-26T09:08:48;97893.19;;;10.26;71.80
83424;BME280;73355;49.044;8.686;2024-02-26T09:11:13;97903.50;;;10.31;71.60
83424;BME280;73355;49.044;8.686;2024-02-26T09:13:39;97918.03;;;10.38;71.68
83424;BME280;73355;49.044;8.686;2024-02-26T09:16:05;97916.41;;;10.40;70.72
83424;BME280;73355;49.044;8.686;2024-02-26T09:18:31;97908.41;;;10.46;70.82
83424;BME280;73355;49.044;8.686;2024-02-26T09:20:56;97902.84;;;10.49;70.77
83424;BME280;73355;49.044;8.686;2024-02-26T09:23:21;97906.63;;;10.52;70.92
83424;BME280;73355;49.044;8.686;2024-02-26T09:25:46;97907.41;;;10.52;70.70
83424;BME280;73355;49.044;8.686;2024-02-26T09:28:12;97903.78;;;10.55;70.62
83424;BME280;73355;49.044;8.686;2024-02-26T09:30:37;97905.13;;;10.60;70.42
83424;BME280;73355;49.044;8.686;2024-02-26T09:33:03;97900.78;;;10.62;69.96
83424;BME280;73355;49.044;8.686;2024-02-26T09:35:29;97906.06;;;10.66;70.12
83424;BME280;73355;49.044;8.686;2024-02-26T09:37:54;97917.13;;;10.71;69.54
83424;BME280;73355;49.044;8.686;2024-02-26T09:40:19;97918.81;;;10.78;69.69
83424;BME280;73355;49.044;8.686;2024-02-26T09:42:45;97909.00;;;10.81;69.39
83424;BME280;73355;49.044;8.686;2024-02-26T09:45:21;97905.84;;;10.82;68.90
83424;BME280;73355;49.044;8.686;2024-02-26T09:47:48;97903.41;;;10.84;68.60
83424;BME280;73355;49.044;8.686;2024-02-26T09:50:17;97910.81;;;10.84;68.56
83424;BME280;73355;49.044;8.686;2024-02-26T09:52:43;97905.69;;;10.86;68.42
83424;BME280;73355;49.044;8.686;2024-02-26T09:55:09;97904.03;;;10.88;67.80
83424;BME280;73355;49.044;8.686;2024-02-26T09:57:44;97910.72;;;10.96;67.62
83424;BME280;73355;49.044;8.686;2024-02-26T10:00:14;97916.50;;;11.07;67.71
83424;BME280;73355;49.044;8.686;2024-02-26T10:02:41;97915.31;;;11.17;67.72
83424;BME280;73355;49.044;8.686;2024-02-26T10:05:07;97917.75;;;11.25;67.72
83424;BME280;73355;49.044;8.686;2024-02-26T10:07:35;97924.88;;;11.31;67.58
83424;BME280;73355;49.044;8.686;2024-02-26T10:10:01;97939.84;;;11.36;67.29
83424;BME280;73355;49.044;8.686;2024-02-26T10:12:28;97937.44;;;11.38;66.59
83424;BME280;73355;49.044;8.686;2024-02-26T10:14:54;97934.09;;;11.34;66.10
83424;BME280;73355;49.044;8.686;2024-02-26T10:17:20;97940.13;;;11.29;65.86
83424;BME280;73355;49.044;8.686;2024-02-26T10:19:45;97945.59;;;11.29;66.54
83424;BME280;73355;49.044;8.686;2024-02-26T10:22:11;97945.91;;;11.31;66.27
83424;BME280;73355;49.044;8.686;2024-02-26T10:24:36;97925.47;;;11.35;66.48
83424;BME280;73355;49.044;8.686;2024-02-26T10:27:02;97928.22;;;11.44;66.38
83424;BME280;73355;49.044;8.686;2024-02-26T10:29:27;97931.72;;;11.54;66.05
83424;BME280;73355;49.044;8.686;2024-02-26T10:32:02;97927.63;;;11.68;65.44
83424;BME280;73355;49.044;8.686;2024-02-26T10:34:28;97931.28;;;11.83;64.54
83424;BME280;73355;49.044;8.686;2024-02-26T10:36:53;97938.72;;;12.00;64.64
83424;BME280;73355;49.044;8.686;2024-02-26T10:39:19;97932.94;;;12.17;64.38
83424;BME280;73355;49.044;8.686;2024-02-26T10:41:44;97945.03;;;12.34;63.62
83424;BME280;73355;49.044;8.686;2024-02-26T10:44:11;97942.09;;;12.56;62.71
83424;BME280;73355;49.044;8.686;2024-02-26T10:46:41;97942.44;;;12.81;62.15
83424;BME280;73355;49.044;8.686;2024-02-26T10:49:13;97949.09;;;12.90;62.26
83424;BME280;73355;49.044;8.686;2024-02-26T10:51:38;97949.41;;;12.82;61.88
83424;BME280;73355;49.044;8.686;2024-02-26T10:54:05;97962.03;;;12.71;61.63
83424;BME280;73355;49.044;8.686;2024-02-26T10:56:34;97967.38;;;12.65;61.06
83424;BME280;73355;49.044;8.686;2024-02-26T10:59:07;97964.78;;;12.71;61.40
83424;BME280;73355;49.044;8.686;2024-02-26T11:01:34;97965.47;;;12.90;61.36
83424;BME280;73355;49.044;8.686;2024-02-26T11:04:02;97964.53;;;13.35;60.42
83424;BME280;73355;49.044;8.686;2024-02-26T11:06:28;97959.41;;;13.75;59.06
83424;BME280;73355;49.044;8.686;2024-02-26T11:08:54;97950.69;;;14.15;58.03
83424;BME280;73355;49.044;8.686;2024-02-26T11:11:31;97955.28;;;14.62;58.25
83424;BME280;73355;49.044;8.686;2024-02-26T11:13:57;97952.09;;;14.99;57.60
83424;BME280;73355;49.044;8.686;2024-02-26T11:16:24;97955.81;;;15.30;56.31
83424;BME280;73355;49.044;8.686;2024-02-26T11:18:51;97952.41;;;15.56;54.97
83424;BME280;73355;49.044;8.686;2024-02-26T11:21:21;97954.59;;;15.72;53.74
83424;BME280;73355;49.044;8.686;2024-02-26T11:23:56;97960.31;;;15.68;52.95
83424;BME280;73355;49.044;8.686;2024-02-26T11:26:23;97949.31;;;15.48;52.19
83424;BME280;73355;49.044;8.686;2024-02-26T11:31:29;97946.69;;;15.39;51.99
83424;BME280;73355;49.044;8.686;2024-02-26T11:39:08;97952.28;;;15.85;49.83
83424;BME280;73355;49.044;8.686;2024-02-26T11:41:33;97949.13;;;15.92;49.25
83424;BME280;73355;49.044;8.686;2024-02-26T11:44:08;97945.22;;;15.79;48.76
83424;BME280;73355;49.044;8.686;2024-02-26T11:46:41;97948.91;;;15.55;49.07
83424;BME280;73355;49.044;8.686;2024-02-26T11:52:00;97945.44;;;15.55;49.43
83424;BME280;73355;49.044;8.686;2024-02-26T11:54:47;97941.16;;;15.94;48.79
83424;BME280;73355;49.044;8.686;2024-02-26T11:57:39;97937.03;;;16.30;48.25
83424;BME280;73355;49.044;8.686;2024-02-26T12:00:12;97941.06;;;16.61;48.76
83424;BME280;73355;49.044;8.686;2024-02-26T12:05:16;97949.81;;;16.90;48.38
83424;BME280;73355;49.044;8.686;2024-02-26T12:07:48;97943.38;;;17.05;48.14
83424;BME280;73355;49.044;8.686;2024-02-26T12:10:35;97950.03;;;17.24;47.64
83424;BME280;73355;49.044;8.686;2024-02-26T12:13:31;97952.31;;;17.31;47.85
83424;BME280;73355;49.044;8.686;2024-02-26T12:15:57;97953.09;;;17.37;47.23
83424;BME280;73355;49.044;8.686;2024-02-26T12:18:24;97953.81;;;17.38;46.91
83424;BME280;73355;49.044;8.686;2024-02-26T12:21:00;97964.13;;;17.43;46.65
83424;BME280;73355;49.044;8.686;2024-02-26T12:23:32;97959.59;;;17.40;46.25
83424;BME280;73355;49.044;8.686;2024-02-26T12:26:00;97955.59;;;17.41;46.79
83424;BME280;73355;49.044;8.686;2024-02-26T12:28:30;97961.38;;;17.43;46.88
83424;BME280;73355;49.044;8.686;2024-02-26T12:30:55;97963.38;;;17.42;46.68
83424;BME280;73355;49.044;8.686;2024-02-26T12:33:25;97964.88;;;17.49;47.51
83424;BME280;73355;49.044;8.686;2024-02-26T12:35:58;97959.00;;;17.67;46.73
83424;BME280;73355;49.044;8.686;2024-02-26T12:38:29;97962.50;;;17.62;46.33
83424;BME280;73355;49.044;8.686;2024-02-26T12:41:01;97960.34;;;17.40;45.70
83424;BME280;73355;49.044;8.686;2024-02-26T12:43:27;97970.22;;;17.21;46.33
83424;BME280;73355;49.044;8.686;2024-02-26T12:45:53;97975.13;;;17.06;47.03
83424;BME280;73355;49.044;8.686;2024-02-26T12:48:21;97978.13;;;17.02;46.84
83424;BME280;73355;49.044;8.686;2024-02-26T12:50:46;97973.41;;;17.08;46.90
83424;BME280;73355;49.044;8.686;2024-02-26T12:53:15;97970.44;;;17.12;46.97
83424;BME280;73355;49.044;8.686;2024-02-26T12:55:40;97982.75;;;17.22;46.56
83424;BME280;73355;49.044;8.686;2024-02-26T12:58:07;97978.66;;;17.54;45.97
83424;BME280;73355;49.044;8.686;2024-02-26T13:00:33;97978.13;;;17.87;45.20
83424;BME280;73355;49.044;8.686;2024-02-26T13:02:59;97976.16;;;17.99;44.12
83424;BME280;73355;49.044;8.686;2024-02-26T13:05:25;97976.16;;;17.99;43.62
83424;BME280;73355;49.044;8.686;2024-02-26T13:07:50;97978.38;;;17.95;43.90
83424;BME280;73355;49.044;8.686;2024-02-26T13:10:18;97985.06;;;17.77;44.00
83424;BME280;73355;49.044;8.686;2024-02-26T13:12:44;97989.19;;;17.56;44.46
83424;BME280;73355;49.044;8.686;2024-02-26T13:18:12;97996.00;;;17.23;45.32